sensor_id;sensor_type;location;lat;lon;timestamp;P1;durP1;ratioP1;P2;durP2;ratioP2
62633;SDS011;48704;50.534;6.442;2024-02-26T00:01:23;2.65;;;0.77;;
62633;SDS011;48704;50.534;6.442;2024-02-26T00:03:48;2.90;;;0.75;;
62633;SDS011;48704;50.534;6.442;2024-02-26T00:06:14;2.40;;;0.93;;
62633;SDS011;48704;50.534;6.442;2024-02-26T00:08:39;1.10;;;0.50;;
62633;SDS011;48704;50.534;6.442;2024-02-26T00:11:04;2.00;;;0.70;;
62633;SDS011;48704;50.534;6.442;2024-02-26T00:13:29;1.63;;;0.68;;
62633;SDS011;48704;50.534;6.442;2024-02-26T00:15:55;1.50;;;0.70;;
62633;SDS011;48704;50.534;6.442;2024-02-26T00:18:20;1.67;;;0.70;;
62633;SDS011;48704;50.534;6.442;2024-02-26T00:20:45;2.13;;;0.60;;
62633;SDS011;48704;50.534;6.442;2024-02-26T00:23:11;3.67;;;0.90;;
62633;SDS011;48704;50.534;6.442;2024-02-26T00:25:36;1.73;;;0.75;;
62633;SDS011;48704;50.534;6.442;2024-02-26T00:28:02;2.67;;;0.63;;
62633;SDS011;48704;50.534;6.442;2024-02-26T00:30:29;1.08;;;0.60;;
62633;SDS011;48704;50.534;6.442;2024-02-26T00:32:54;2.22;;;0.80;;
62633;SDS011;48704;50.534;6.442;2024-02-26T00:35:19;0.90;;;0.57;;
62633;SDS011;48704;50.534;6.442;2024-02-26T00:37:45;2.10;;;0.70;;
62633;SDS011;48704;50.534;6.442;2024-02-26T00:40:11;1.98;;;0.45;;
62633;SDS011;48704;50.534;6.442;2024-02-26T00:42:36;2.53;;;0.98;;
62633;SDS011;48704;50.534;6.442;2024-02-26T00:45:01;1.65;;;0.50;;
62633;SDS011;48704;50.534;6.442;2024-02-26T00:47:27;2.10;;;0.60;;
62633;SDS011;48704;50.534;6.442;2024-02-26T00:49:52;1.92;;;0.65;;
62633;SDS011;48704;50.534;6.442;2024-02-26T00:52:17;1.25;;;0.50;;
62633;SDS011;48704;50.534;6.442;2024-02-26T00:54:43;2.13;;;0.82;;
62633;SDS011;48704;50.534;6.442;2024-02-26T00:57:08;4.15;;;0.60;;
62633;SDS011;48704;50.534;6.442;2024-02-26T00:59:33;2.97;;;0.80;;
62633;SDS011;48704;50.534;6.442;2024-02-26T01:01:59;2.08;;;0.98;;
62633;SDS011;48704;50.534;6.442;2024-02-26T01:04:27;1.23;;;0.70;;
62633;SDS011;48704;50.534;6.442;2024-02-26T01:06:52;1.73;;;0.65;;
62633;SDS011;48704;50.534;6.442;2024-02-26T01:09:17;2.65;;;0.63;;
62633;SDS011;48704;50.534;6.442;2024-02-26T01:11:43;0.93;;;0.60;;
62633;SDS011;48704;50.534;6.442;2024-02-26T01:14:08;1.17;;;0.63;;
62633;SDS011;48704;50.534;6.442;2024-02-26T01:16:34;1.38;;;0.63;;
62633;SDS011;48704;50.534;6.442;2024-02-26T01:18:59;0.68;;;0.50;;
62633;SDS011;48704;50.534;6.442;2024-02-26T01:21:24;1.45;;;0.60;;
62633;SDS011;48704;50.534;6.442;2024-02-26T01:23:50;1.55;;;0.90;;
62633;SDS011;48704;50.534;6.442;2024-02-26T01:26:15;1.52;;;0.70;;
62633;SDS011;48704;50.534;6.442;2024-02-26T01:28:40;1.75;;;0.70;;
62633;SDS011;48704;50.534;6.442;2024-02-26T01:31:06;1.55;;;0.65;;
62633;SDS011;48704;50.534;6.442;2024-02-26T01:33:33;1.30;;;0.50;;
62633;SDS011;48704;50.534;6.442;2024-02-26T01:35:58;2.92;;;0.60;;
62633;SDS011;48704;50.534;6.442;2024-02-26T01:38:25;2.47;;;0.80;;
62633;SDS011;48704;50.534;6.442;2024-02-26T01:40:51;1.60;;;0.70;;
62633;SDS011;48704;50.534;6.442;2024-02-26T01:43:16;2.15;;;0.90;;
62633;SDS011;48704;50.534;6.442;2024-02-26T01:45:42;2.13;;;0.70;;
62633;SDS011;48704;50.534;6.442;2024-02-26T01:48:07;2.13;;;0.70;;
62633;SDS011;48704;50.534;6.442;2024-02-26T01:50:33;1.88;;;0.80;;
62633;SDS011;48704;50.534;6.442;2024-02-26T01:52:59;0.95;;;0.50;;
62633;SDS011;48704;50.534;6.442;2024-02-26T01:55:25;1.33;;;0.60;;
62633;SDS011;48704;50.534;6.442;2024-02-26T01:57:51;1.52;;;0.77;;
62633;SDS011;48704;50.534;6.442;2024-02-26T02:00:19;1.17;;;0.50;;
62633;SDS011;48704;50.534;6.442;2024-02-26T02:02:46;0.95;;;0.60;;
62633;SDS011;48704;50.534;6.442;2024-02-26T02:05:13;2.80;;;0.75;;
62633;SDS011;48704;50.534;6.442;2024-02-26T02:07:41;1.60;;;0.80;;
62633;SDS011;48704;50.534;6.442;2024-02-26T02:10:06;3.45;;;1.42;;
62633;SDS011;48704;50.534;6.442;2024-02-26T02:12:32;2.20;;;0.93;;
62633;SDS011;48704;50.534;6.442;2024-02-26T02:14:59;2.13;;;0.80;;
62633;SDS011;48704;50.534;6.442;2024-02-26T02:17:25;1.83;;;0.70;;
62633;SDS011;48704;50.534;6.442;2024-02-26T02:19:52;1.30;;;0.70;;
62633;SDS011;48704;50.534;6.442;2024-02-26T02:22:18;1.85;;;0.70;;
62633;SDS011;48704;50.534;6.442;2024-02-26T02:24:43;1.15;;;0.60;;
62633;SDS011;48704;50.534;6.442;2024-02-26T02:27:08;1.17;;;0.75;;
62633;SDS011;48704;50.534;6.442;2024-02-26T02:29:34;1.42;;;0.65;;
62633;SDS011;48704;50.534;6.442;2024-02-26T02:31:59;1.42;;;0.70;;
62633;SDS011;48704;50.534;6.442;2024-02-26T02:34:27;2.50;;;0.68;;
62633;SDS011;48704;50.534;6.442;2024-02-26T02:36:53;1.55;;;0.70;;
62633;SDS011;48704;50.534;6.442;2024-02-26T02:39:19;2.00;;;0.90;;
62633;SDS011;48704;50.534;6.442;2024-02-26T02:41:45;1.38;;;0.82;;
62633;SDS011;48704;50.534;6.442;2024-02-26T02:44:10;3.35;;;1.00;;
62633;SDS011;48704;50.534;6.442;2024-02-26T02:46:36;2.83;;;1.30;;
62633;SDS011;48704;50.534;6.442;2024-02-26T02:49:02;4.30;;;1.30;;
62633;SDS011;48704;50.534;6.442;2024-02-26T02:51:27;2.88;;;1.13;;
62633;SDS011;48704;50.534;6.442;2024-02-26T02:53:52;2.33;;;1.17;;
62633;SDS011;48704;50.534;6.442;2024-02-26T02:56:18;2.13;;;1.10;;
62633;SDS011;48704;50.534;6.442;2024-02-26T02:58:43;3.05;;;1.20;;
62633;SDS011;48704;50.534;6.442;2024-02-26T03:01:09;3.45;;;1.23;;
62633;SDS011;48704;50.534;6.442;2024-02-26T03:03:34;2.25;;;1.25;;
62633;SDS011;48704;50.534;6.442;2024-02-26T03:06:01;3.75;;;1.30;;
62633;SDS011;48704;50.534;6.442;2024-02-26T03:08:27;2.13;;;1.20;;
62633;SDS011;48704;50.534;6.442;2024-02-26T03:10:52;2.00;;;0.88;;
62633;SDS011;48704;50.534;6.442;2024-02-26T03:13:18;2.92;;;1.45;;
62633;SDS011;48704;50.534;6.442;2024-02-26T03:15:43;2.30;;;1.30;;
62633;SDS011;48704;50.534;6.442;2024-02-26T03:18:08;2.75;;;1.30;;
62633;SDS011;48704;50.534;6.442;2024-02-26T03:20:34;2.88;;;1.30;;
62633;SDS011;48704;50.534;6.442;2024-02-26T03:22:59;2.50;;;1.20;;
62633;SDS011;48704;50.534;6.442;2024-02-26T03:25:24;3.20;;;1.50;;
62633;SDS011;48704;50.534;6.442;2024-02-26T03:27:50;2.22;;;1.17;;
62633;SDS011;48704;50.534;6.442;2024-02-26T03:30:15;4.07;;;1.40;;
62633;SDS011;48704;50.534;6.442;2024-02-26T03:32:41;4.13;;;1.73;;
62633;SDS011;48704;50.534;6.442;2024-02-26T03:35:06;2.83;;;1.45;;
62633;SDS011;48704;50.534;6.442;2024-02-26T03:37:33;2.40;;;1.33;;
62633;SDS011;48704;50.534;6.442;2024-02-26T03:39:58;5.15;;;1.75;;
62633;SDS011;48704;50.534;6.442;2024-02-26T03:42:23;3.70;;;1.58;;
62633;SDS011;48704;50.534;6.442;2024-02-26T03:44:49;3.00;;;1.35;;
62633;SDS011;48704;50.534;6.442;2024-02-26T03:47:15;3.13;;;1.45;;
62633;SDS011;48704;50.534;6.442;2024-02-26T03:49:41;2.08;;;1.10;;
62633;SDS011;48704;50.534;6.442;2024-02-26T03:52:06;2.25;;;1.30;;
62633;SDS011;48704;50.534;6.442;2024-02-26T03:54:38;4.07;;;1.20;;
62633;SDS011;48704;50.534;6.442;2024-02-26T03:57:03;1.75;;;0.85;;
62633;SDS011;48704;50.534;6.442;2024-02-26T03:59:29;2.95;;;1.83;;
62633;SDS011;48704;50.534;6.442;2024-02-26T04:01:54;3.25;;;1.02;;
62633;SDS011;48704;50.534;6.442;2024-02-26T04:04:19;1.70;;;1.05;;
62633;SDS011;48704;50.534;6.442;2024-02-26T04:06:45;3.78;;;1.60;;
62633;SDS011;48704;50.534;6.442;2024-02-26T04:09:11;3.53;;;1.52;;
62633;SDS011;48704;50.534;6.442;2024-02-26T04:11:37;1.90;;;1.05;;
62633;SDS011;48704;50.534;6.442;2024-02-26T04:14:03;2.13;;;1.40;;
62633;SDS011;48704;50.534;6.442;2024-02-26T04:16:28;3.08;;;1.15;;
62633;SDS011;48704;50.534;6.442;2024-02-26T04:18:54;4.07;;;1.65;;
62633;SDS011;48704;50.534;6.442;2024-02-26T04:21:19;2.90;;;1.35;;
62633;SDS011;48704;50.534;6.442;2024-02-26T04:23:45;3.88;;;1.45;;
62633;SDS011;48704;50.534;6.442;2024-02-26T04:26:10;2.08;;;1.17;;
62633;SDS011;48704;50.534;6.442;2024-02-26T04:28:36;2.25;;;1.33;;
62633;SDS011;48704;50.534;6.442;2024-02-26T04:31:01;2.15;;;1.42;;
62633;SDS011;48704;50.534;6.442;2024-02-26T04:33:26;2.85;;;1.50;;
62633;SDS011;48704;50.534;6.442;2024-02-26T04:35:52;3.30;;;1.40;;
62633;SDS011;48704;50.534;6.442;2024-02-26T04:38:17;2.00;;;1.27;;
62633;SDS011;48704;50.534;6.442;2024-02-26T04:40:43;2.20;;;1.33;;
62633;SDS011;48704;50.534;6.442;2024-02-26T04:43:08;3.63;;;1.30;;
62633;SDS011;48704;50.534;6.442;2024-02-26T04:45:33;2.72;;;1.25;;
62633;SDS011;48704;50.534;6.442;2024-02-26T04:47:59;4.00;;;1.50;;
62633;SDS011;48704;50.534;6.442;2024-02-26T04:50:24;2.83;;;1.67;;
62633;SDS011;48704;50.534;6.442;2024-02-26T04:52:49;2.40;;;1.27;;
62633;SDS011;48704;50.534;6.442;2024-02-26T04:55:15;2.85;;;1.42;;
62633;SDS011;48704;50.534;6.442;2024-02-26T04:57:40;3.67;;;1.60;;
62633;SDS011;48704;50.534;6.442;2024-02-26T05:00:06;2.67;;;1.50;;
62633;SDS011;48704;50.534;6.442;2024-02-26T05:02:31;3.42;;;1.60;;
62633;SDS011;48704;50.534;6.442;2024-02-26T05:04:58;1.95;;;1.13;;
62633;SDS011;48704;50.534;6.442;2024-02-26T05:07:24;2.30;;;1.27;;
62633;SDS011;48704;50.534;6.442;2024-02-26T05:09:49;2.25;;;1.25;;
62633;SDS011;48704;50.534;6.442;2024-02-26T05:12:15;1.98;;;1.10;;
62633;SDS011;48704;50.534;6.442;2024-02-26T05:14:40;2.45;;;1.23;;
62633;SDS011;48704;50.534;6.442;2024-02-26T05:17:05;1.70;;;1.15;;
62633;SDS011;48704;50.534;6.442;2024-02-26T05:19:31;3.33;;;1.35;;
62633;SDS011;48704;50.534;6.442;2024-02-26T05:21:57;2.10;;;1.00;;
62633;SDS011;48704;50.534;6.442;2024-02-26T05:24:22;4.70;;;1.30;;
62633;SDS011;48704;50.534;6.442;2024-02-26T05:26:48;3.17;;;1.08;;
62633;SDS011;48704;50.534;6.442;2024-02-26T05:29:13;2.10;;;1.02;;
62633;SDS011;48704;50.534;6.442;2024-02-26T05:31:39;2.45;;;1.10;;
62633;SDS011;48704;50.534;6.442;2024-02-26T05:34:04;1.70;;;0.80;;
62633;SDS011;48704;50.534;6.442;2024-02-26T05:36:30;1.65;;;0.90;;
62633;SDS011;48704;50.534;6.442;2024-02-26T05:38:58;2.38;;;0.98;;
62633;SDS011;48704;50.534;6.442;2024-02-26T05:41:26;1.52;;;0.77;;
62633;SDS011;48704;50.534;6.442;2024-02-26T05:43:52;1.65;;;0.77;;
62633;SDS011;48704;50.534;6.442;2024-02-26T05:46:18;1.88;;;0.82;;
62633;SDS011;48704;50.534;6.442;2024-02-26T05:48:46;1.00;;;0.60;;
62633;SDS011;48704;50.534;6.442;2024-02-26T05:51:12;2.08;;;0.60;;
62633;SDS011;48704;50.534;6.442;2024-02-26T05:53:37;1.10;;;0.68;;
62633;SDS011;48704;50.534;6.442;2024-02-26T05:56:03;1.85;;;0.88;;
62633;SDS011;48704;50.534;6.442;2024-02-26T05:58:28;3.03;;;0.68;;
62633;SDS011;48704;50.534;6.442;2024-02-26T06:00:54;4.40;;;0.85;;
62633;SDS011;48704;50.534;6.442;2024-02-26T06:03:19;1.35;;;0.60;;
62633;SDS011;48704;50.534;6.442;2024-02-26T06:05:45;1.73;;;0.80;;
62633;SDS011;48704;50.534;6.442;2024-02-26T06:08:11;1.65;;;0.77;;
62633;SDS011;48704;50.534;6.442;2024-02-26T06:10:36;2.08;;;0.77;;
62633;SDS011;48704;50.534;6.442;2024-02-26T06:13:01;0.90;;;0.57;;
62633;SDS011;48704;50.534;6.442;2024-02-26T06:15:27;1.42;;;0.73;;
62633;SDS011;48704;50.534;6.442;2024-02-26T06:17:52;1.55;;;0.90;;
62633;SDS011;48704;50.534;6.442;2024-02-26T06:20:17;2.15;;;0.70;;
62633;SDS011;48704;50.534;6.442;2024-02-26T06:22:43;1.20;;;0.73;;
62633;SDS011;48704;50.534;6.442;2024-02-26T06:25:08;1.75;;;0.80;;
62633;SDS011;48704;50.534;6.442;2024-02-26T06:27:34;2.17;;;0.80;;
62633;SDS011;48704;50.534;6.442;2024-02-26T06:29:59;1.38;;;0.80;;
62633;SDS011;48704;50.534;6.442;2024-02-26T06:32:25;1.38;;;0.80;;
62633;SDS011;48704;50.534;6.442;2024-02-26T06:34:52;1.58;;;0.93;;
62633;SDS011;48704;50.534;6.442;2024-02-26T06:37:18;2.00;;;1.00;;
62633;SDS011;48704;50.534;6.442;2024-02-26T06:39:43;1.98;;;0.93;;
62633;SDS011;48704;50.534;6.442;2024-02-26T06:42:08;1.52;;;0.73;;
62633;SDS011;48704;50.534;6.442;2024-02-26T06:44:34;1.40;;;0.70;;
62633;SDS011;48704;50.534;6.442;2024-02-26T06:46:59;1.70;;;0.95;;
62633;SDS011;48704;50.534;6.442;2024-02-26T06:49:25;1.75;;;1.08;;
62633;SDS011;48704;50.534;6.442;2024-02-26T06:51:50;2.15;;;0.85;;
62633;SDS011;48704;50.534;6.442;2024-02-26T06:54:15;1.88;;;0.90;;
62633;SDS011;48704;50.534;6.442;2024-02-26T06:56:41;2.25;;;1.08;;
62633;SDS011;48704;50.534;6.442;2024-02-26T06:59:06;1.83;;;0.90;;
62633;SDS011;48704;50.534;6.442;2024-02-26T07:01:31;2.33;;;1.05;;
62633;SDS011;48704;50.534;6.442;2024-02-26T07:03:57;3.08;;;1.10;;
62633;SDS011;48704;50.534;6.442;2024-02-26T07:06:22;2.20;;;1.02;;
62633;SDS011;48704;50.534;6.442;2024-02-26T07:08:47;4.30;;;1.27;;
62633;SDS011;48704;50.534;6.442;2024-02-26T07:11:12;2.42;;;1.35;;
62633;SDS011;48704;50.534;6.442;2024-02-26T07:13:38;2.13;;;1.10;;
62633;SDS011;48704;50.534;6.442;2024-02-26T07:16:03;1.90;;;1.10;;
62633;SDS011;48704;50.534;6.442;2024-02-26T07:18:29;2.03;;;1.27;;
62633;SDS011;48704;50.534;6.442;2024-02-26T07:20:54;2.22;;;1.20;;
62633;SDS011;48704;50.534;6.442;2024-02-26T07:23:20;1.88;;;1.10;;
62633;SDS011;48704;50.534;6.442;2024-02-26T07:25:46;1.90;;;1.10;;
62633;SDS011;48704;50.534;6.442;2024-02-26T07:28:13;3.40;;;1.45;;
62633;SDS011;48704;50.534;6.442;2024-02-26T07:30:39;2.75;;;1.25;;
62633;SDS011;48704;50.534;6.442;2024-02-26T07:33:04;2.38;;;1.30;;
62633;SDS011;48704;50.534;6.442;2024-02-26T07:35:30;2.88;;;1.40;;
62633;SDS011;48704;50.534;6.442;2024-02-26T07:37:55;2.63;;;1.20;;
62633;SDS011;48704;50.534;6.442;2024-02-26T07:40:20;2.03;;;1.10;;
62633;SDS011;48704;50.534;6.442;2024-02-26T07:42:46;2.45;;;1.30;;
62633;SDS011;48704;50.534;6.442;2024-02-26T07:45:11;2.53;;;1.40;;
62633;SDS011;48704;50.534;6.442;2024-02-26T07:47:36;2.75;;;1.38;;
62633;SDS011;48704;50.534;6.442;2024-02-26T07:50:05;2.17;;;1.17;;
62633;SDS011;48704;50.534;6.442;2024-02-26T07:52:32;2.10;;;1.20;;
62633;SDS011;48704;50.534;6.442;2024-02-26T07:54:57;2.20;;;1.10;;
62633;SDS011;48704;50.534;6.442;2024-02-26T07:57:23;1.92;;;1.20;;
62633;SDS011;48704;50.534;6.442;2024-02-26T07:59:48;2.75;;;1.35;;
62633;SDS011;48704;50.534;6.442;2024-02-26T08:02:14;1.55;;;1.00;;
62633;SDS011;48704;50.534;6.442;2024-02-26T08:04:40;2.30;;;1.20;;
62633;SDS011;48704;50.534;6.442;2024-02-26T08:07:05;2.05;;;1.10;;
62633;SDS011;48704;50.534;6.442;2024-02-26T08:09:31;3.28;;;1.08;;
62633;SDS011;48704;50.534;6.442;2024-02-26T08:11:56;2.67;;;0.90;;
62633;SDS011;48704;50.534;6.442;2024-02-26T08:14:21;1.45;;;0.88;;
62633;SDS011;48704;50.534;6.442;2024-02-26T08:16:47;1.80;;;1.10;;
62633;SDS011;48704;50.534;6.442;2024-02-26T08:19:12;2.00;;;1.05;;
62633;SDS011;48704;50.534;6.442;2024-02-26T08:21:40;1.98;;;0.82;;
62633;SDS011;48704;50.534;6.442;2024-02-26T08:24:05;1.67;;;0.85;;
62633;SDS011;48704;50.534;6.442;2024-02-26T08:26:30;2.70;;;1.10;;
62633;SDS011;48704;50.534;6.442;2024-02-26T08:28:56;2.85;;;0.75;;
62633;SDS011;48704;50.534;6.442;2024-02-26T08:31:22;1.60;;;0.70;;
62633;SDS011;48704;50.534;6.442;2024-02-26T08:33:48;1.15;;;0.63;;
62633;SDS011;48704;50.534;6.442;2024-02-26T08:36:14;0.85;;;0.50;;
62633;SDS011;48704;50.534;6.442;2024-02-26T08:38:39;0.85;;;0.52;;
62633;SDS011;48704;50.534;6.442;2024-02-26T08:41:04;0.98;;;0.52;;
62633;SDS011;48704;50.534;6.442;2024-02-26T08:43:30;2.58;;;0.52;;
62633;SDS011;48704;50.534;6.442;2024-02-26T08:45:56;0.65;;;0.40;;
62633;SDS011;48704;50.534;6.442;2024-02-26T08:48:22;1.40;;;0.60;;
62633;SDS011;48704;50.534;6.442;2024-02-26T08:50:47;1.52;;;0.70;;
62633;SDS011;48704;50.534;6.442;2024-02-26T08:53:12;0.88;;;0.50;;
62633;SDS011;48704;50.534;6.442;2024-02-26T08:55:37;1.30;;;0.50;;
62633;SDS011;48704;50.534;6.442;2024-02-26T08:58:03;1.02;;;0.50;;
62633;SDS011;48704;50.534;6.442;2024-02-26T09:00:28;0.75;;;0.30;;
62633;SDS011;48704;50.534;6.442;2024-02-26T09:02:53;0.95;;;0.30;;
62633;SDS011;48704;50.534;6.442;2024-02-26T09:05:19;2.55;;;0.38;;
62633;SDS011;48704;50.534;6.442;2024-02-26T09:07:44;2.42;;;1.20;;
62633;SDS011;48704;50.534;6.442;2024-02-26T09:10:11;2.47;;;1.00;;
62633;SDS011;48704;50.534;6.442;2024-02-26T09:12:37;1.45;;;0.80;;
62633;SDS011;48704;50.534;6.442;2024-02-26T09:15:02;1.42;;;1.02;;
62633;SDS011;48704;50.534;6.442;2024-02-26T09:17:28;1.20;;;0.70;;
62633;SDS011;48704;50.534;6.442;2024-02-26T09:19:54;1.42;;;0.70;;
62633;SDS011;48704;50.534;6.442;2024-02-26T09:22:19;0.55;;;0.40;;
62633;SDS011;48704;50.534;6.442;2024-02-26T09:24:44;1.65;;;0.40;;
62633;SDS011;48704;50.534;6.442;2024-02-26T09:27:10;0.60;;;0.40;;
62633;SDS011;48704;50.534;6.442;2024-02-26T09:29:35;0.30;;;0.30;;
62633;SDS011;48704;50.534;6.442;2024-02-26T09:32:01;1.70;;;0.50;;
62633;SDS011;48704;50.534;6.442;2024-02-26T09:34:26;2.33;;;0.80;;
62633;SDS011;48704;50.534;6.442;2024-02-26T09:36:51;1.38;;;0.82;;
62633;SDS011;48704;50.534;6.442;2024-02-26T09:39:20;2.28;;;0.90;;
62633;SDS011;48704;50.534;6.442;2024-02-26T09:41:47;1.23;;;0.60;;
62633;SDS011;48704;50.534;6.442;2024-02-26T09:44:14;0.93;;;0.52;;
62633;SDS011;48704;50.534;6.442;2024-02-26T09:46:43;1.52;;;0.68;;
62633;SDS011;48704;50.534;6.442;2024-02-26T09:49:09;1.08;;;0.60;;
62633;SDS011;48704;50.534;6.442;2024-02-26T09:51:37;1.15;;;0.50;;
62633;SDS011;48704;50.534;6.442;2024-02-26T09:54:03;0.93;;;0.50;;
62633;SDS011;48704;50.534;6.442;2024-02-26T09:56:29;0.93;;;0.40;;
62633;SDS011;48704;50.534;6.442;2024-02-26T09:58:55;0.85;;;0.30;;
62633;SDS011;48704;50.534;6.442;2024-02-26T10:01:23;1.60;;;0.60;;
62633;SDS011;48704;50.534;6.442;2024-02-26T10:03:55;1.10;;;0.60;;
62633;SDS011;48704;50.534;6.442;2024-02-26T10:06:22;1.95;;;0.75;;
62633;SDS011;48704;50.534;6.442;2024-02-26T10:08:51;3.08;;;0.93;;
62633;SDS011;48704;50.534;6.442;2024-02-26T10:11:17;1.92;;;0.85;;
62633;SDS011;48704;50.534;6.442;2024-02-26T10:13:43;2.08;;;1.20;;
62633;SDS011;48704;50.534;6.442;2024-02-26T10:16:08;0.95;;;0.60;;
62633;SDS011;48704;50.534;6.442;2024-02-26T10:18:54;1.45;;;0.85;;
62633;SDS011;48704;50.534;6.442;2024-02-26T10:21:20;1.30;;;0.85;;
62633;SDS011;48704;50.534;6.442;2024-02-26T10:23:46;1.73;;;0.93;;
62633;SDS011;48704;50.534;6.442;2024-02-26T10:26:15;1.85;;;1.23;;
62633;SDS011;48704;50.534;6.442;2024-02-26T10:28:42;2.13;;;1.13;;
62633;SDS011;48704;50.534;6.442;2024-02-26T10:31:09;2.75;;;1.58;;
62633;SDS011;48704;50.534;6.442;2024-02-26T10:33:35;2.42;;;1.33;;
62633;SDS011;48704;50.534;6.442;2024-02-26T10:36:02;2.10;;;1.35;;
62633;SDS011;48704;50.534;6.442;2024-02-26T10:38:30;2.42;;;1.45;;
62633;SDS011;48704;50.534;6.442;2024-02-26T10:40:55;2.63;;;1.75;;
62633;SDS011;48704;50.534;6.442;2024-02-26T10:43:21;2.75;;;1.70;;
62633;SDS011;48704;50.534;6.442;2024-02-26T10:45:46;3.17;;;1.88;;
62633;SDS011;48704;50.534;6.442;2024-02-26T10:48:13;3.72;;;2.35;;
62633;SDS011;48704;50.534;6.442;2024-02-26T10:50:39;5.25;;;2.50;;
62633;SDS011;48704;50.534;6.442;2024-02-26T10:53:38;3.97;;;2.50;;
62633;SDS011;48704;50.534;6.442;2024-02-26T10:55:59;3.55;;;2.47;;
62633;SDS011;48704;50.534;6.442;2024-02-26T10:58:28;3.90;;;2.75;;
62633;SDS011;48704;50.534;6.442;2024-02-26T11:00:54;4.07;;;2.33;;
62633;SDS011;48704;50.534;6.442;2024-02-26T11:03:22;3.78;;;2.50;;
62633;SDS011;48704;50.534;6.442;2024-02-26T11:05:48;4.32;;;2.80;;
62633;SDS011;48704;50.534;6.442;2024-02-26T11:08:14;3.78;;;2.60;;
62633;SDS011;48704;50.534;6.442;2024-02-26T11:10:42;4.40;;;3.15;;
62633;SDS011;48704;50.534;6.442;2024-02-26T11:13:09;5.07;;;2.50;;
62633;SDS011;48704;50.534;6.442;2024-02-26T11:15:37;5.32;;;3.08;;
62633;SDS011;48704;50.534;6.442;2024-02-26T11:18:03;7.07;;;4.30;;
62633;SDS011;48704;50.534;6.442;2024-02-26T11:20:29;5.28;;;3.45;;
62633;SDS011;48704;50.534;6.442;2024-02-26T11:22:57;6.28;;;3.00;;
62633;SDS011;48704;50.534;6.442;2024-02-26T11:25:22;4.28;;;2.65;;
62633;SDS011;48704;50.534;6.442;2024-02-26T11:27:58;4.90;;;2.78;;
62633;SDS011;48704;50.534;6.442;2024-02-26T11:30:29;3.65;;;2.75;;
62633;SDS011;48704;50.534;6.442;2024-02-26T11:32:56;5.15;;;3.05;;
62633;SDS011;48704;50.534;6.442;2024-02-26T11:35:22;4.30;;;2.63;;
62633;SDS011;48704;50.534;6.442;2024-02-26T11:37:54;4.63;;;2.85;;
62633;SDS011;48704;50.534;6.442;2024-02-26T11:40:22;3.90;;;3.00;;
62633;SDS011;48704;50.534;6.442;2024-02-26T11:42:48;4.28;;;2.40;;
62633;SDS011;48704;50.534;6.442;2024-02-26T11:48:02;6.45;;;2.40;;
62633;SDS011;48704;50.534;6.442;2024-02-26T11:50:34;3.80;;;2.20;;
62633;SDS011;48704;50.534;6.442;2024-02-26T11:55:45;4.50;;;2.22;;
62633;SDS011;48704;50.534;6.442;2024-02-26T11:58:10;4.43;;;2.22;;
62633;SDS011;48704;50.534;6.442;2024-02-26T12:00:35;9.77;;;2.80;;
62633;SDS011;48704;50.534;6.442;2024-02-26T12:03:01;5.28;;;2.70;;
62633;SDS011;48704;50.534;6.442;2024-02-26T12:05:32;3.35;;;2.40;;
62633;SDS011;48704;50.534;6.442;2024-02-26T12:08:03;4.13;;;2.40;;
62633;SDS011;48704;50.534;6.442;2024-02-26T12:10:31;3.33;;;2.17;;
62633;SDS011;48704;50.534;6.442;2024-02-26T12:13:11;3.45;;;2.15;;
62633;SDS011;48704;50.534;6.442;2024-02-26T12:15:44;4.53;;;2.50;;
62633;SDS011;48704;50.534;6.442;2024-02-26T12:18:15;4.75;;;2.60;;
62633;SDS011;48704;50.534;6.442;2024-02-26T12:20:42;4.15;;;2.70;;
62633;SDS011;48704;50.534;6.442;2024-02-26T12:23:09;3.30;;;2.10;;
62633;SDS011;48704;50.534;6.442;2024-02-26T12:25:39;3.58;;;2.58;;
62633;SDS011;48704;50.534;6.442;2024-02-26T12:28:05;8.00;;;2.45;;
62633;SDS011;48704;50.534;6.442;2024-02-26T12:30:32;3.95;;;2.15;;
62633;SDS011;48704;50.534;6.442;2024-02-26T12:32:57;3.47;;;2.40;;
62633;SDS011;48704;50.534;6.442;2024-02-26T12:35:25;5.07;;;2.22;;
62633;SDS011;48704;50.534;6.442;2024-02-26T12:37:52;9.00;;;2.75;;
62633;SDS011;48704;50.534;6.442;2024-02-26T12:40:18;3.42;;;2.05;;
62633;SDS011;48704;50.534;6.442;2024-02-26T12:42:44;3.78;;;2.70;;
62633;SDS011;48704;50.534;6.442;2024-02-26T12:45:10;8.23;;;2.25;;
62633;SDS011;48704;50.534;6.442;2024-02-26T12:47:40;3.17;;;2.28;;
62633;SDS011;48704;50.534;6.442;2024-02-26T12:50:07;3.72;;;2.45;;
62633;SDS011;48704;50.534;6.442;2024-02-26T12:52:38;4.55;;;2.33;;
62633;SDS011;48704;50.534;6.442;2024-02-26T12:55:05;4.22;;;2.20;;
62633;SDS011;48704;50.534;6.442;2024-02-26T12:57:34;3.80;;;2.15;;
62633;SDS011;48704;50.534;6.442;2024-02-26T13:00:03;3.25;;;1.90;;
62633;SDS011;48704;50.534;6.442;2024-02-26T13:02:31;6.82;;;2.67;;
62633;SDS011;48704;50.534;6.442;2024-02-26T13:05:00;4.07;;;2.53;;
62633;SDS011;48704;50.534;6.442;2024-02-26T13:07:27;3.05;;;2.13;;
62633;SDS011;48704;50.534;6.442;2024-02-26T13:09:52;3.85;;;2.13;;
62633;SDS011;48704;50.534;6.442;2024-02-26T13:12:18;4.25;;;2.42;;
62633;SDS011;48704;50.534;6.442;2024-02-26T13:14:43;15.65;;;3.47;;
62633;SDS011;48704;50.534;6.442;2024-02-26T13:17:09;9.25;;;2.55;;
62633;SDS011;48704;50.534;6.442;2024-02-26T13:19:35;5.68;;;3.38;;
62633;SDS011;48704;50.534;6.442;2024-02-26T13:22:03;8.25;;;2.75;;
62633;SDS011;48704;50.534;6.442;2024-02-26T13:24:32;22.98;;;3.22;;
62633;SDS011;48704;50.534;6.442;2024-02-26T13:26:58;7.63;;;2.90;;
62633;SDS011;48704;50.534;6.442;2024-02-26T13:29:24;4.90;;;2.55;;
62633;SDS011;48704;50.534;6.442;2024-02-26T13:31:58;6.80;;;3.53;;
62633;SDS011;48704;50.534;6.442;2024-02-26T13:34:24;6.72;;;3.55;;
62633;SDS011;48704;50.534;6.442;2024-02-26T13:36:53;60.20;;;7.15;;
62633;SDS011;48704;50.534;6.442;2024-02-26T13:39:22;4.45;;;2.97;;
62633;SDS011;48704;50.534;6.442;2024-02-26T13:41:52;4.95;;;3.40;;
62633;SDS011;48704;50.534;6.442;2024-02-26T13:44:18;12.98;;;3.72;;
62633;SDS011;48704;50.534;6.442;2024-02-26T13:46:44;11.82;;;3.45;;
62633;SDS011;48704;50.534;6.442;2024-02-26T13:49:10;85.15;;;7.22;;
62633;SDS011;48704;50.534;6.442;2024-02-26T13:51:41;6.50;;;3.28;;
62633;SDS011;48704;50.534;6.442;2024-02-26T13:54:06;5.13;;;3.25;;
62633;SDS011;48704;50.534;6.442;2024-02-26T13:56:32;51.22;;;5.65;;
62633;SDS011;48704;50.534;6.442;2024-02-26T13:58:58;7.75;;;3.38;;
62633;SDS011;48704;50.534;6.442;2024-02-26T14:01:23;7.78;;;3.47;;
62633;SDS011;48704;50.534;6.442;2024-02-26T14:03:49;141.88;;;11.13;;
62633;SDS011;48704;50.534;6.442;2024-02-26T14:06:15;22.63;;;4.35;;
62633;SDS011;48704;50.534;6.442;2024-02-26T14:08:40;14.35;;;4.30;;
62633;SDS011;48704;50.534;6.442;2024-02-26T14:11:05;6.93;;;3.40;;
62633;SDS011;48704;50.534;6.442;2024-02-26T14:13:31;12.68;;;4.30;;
62633;SDS011;48704;50.534;6.442;2024-02-26T14:15:56;12.23;;;4.15;;
62633;SDS011;48704;50.534;6.442;2024-02-26T14:18:22;37.53;;;5.53;;
62633;SDS011;48704;50.534;6.442;2024-02-26T14:20:47;8.63;;;3.97;;
62633;SDS011;48704;50.534;6.442;2024-02-26T14:23:13;5.88;;;3.47;;
62633;SDS011;48704;50.534;6.442;2024-02-26T14:25:39;10.07;;;4.18;;
62633;SDS011;48704;50.534;6.442;2024-02-26T14:28:04;12.05;;;4.90;;
62633;SDS011;48704;50.534;6.442;2024-02-26T14:30:30;43.00;;;4.80;;
62633;SDS011;48704;50.534;6.442;2024-02-26T14:32:55;55.08;;;6.43;;
62633;SDS011;48704;50.534;6.442;2024-02-26T14:35:20;44.17;;;5.95;;
62633;SDS011;48704;50.534;6.442;2024-02-26T14:37:46;14.25;;;4.60;;
62633;SDS011;48704;50.534;6.442;2024-02-26T14:40:12;36.00;;;5.10;;
62633;SDS011;48704;50.534;6.442;2024-02-26T14:42:39;7.63;;;4.10;;
62633;SDS011;48704;50.534;6.442;2024-02-26T14:45:06;32.88;;;6.30;;
62633;SDS011;48704;50.534;6.442;2024-02-26T14:47:34;69.65;;;7.07;;